createdAt,value
2023-03-22T00:00:19.011Z,85.30
2023-03-22T00:03:55.485Z,84.30
2023-03-22T00:07:33.059Z,73.30
2023-03-22T00:11:29.935Z,68.90
2023-03-22T00:14:49.579Z,67.60
2023-03-22T00:18:45.400Z,70.60
2023-03-22T00:22:23.794Z,63.60
2023-03-22T00:25:43.423Z,62.60
2023-03-22T00:29:19.916Z,77.60
2023-03-22T00:32:57.505Z,72.50
2023-03-22T00:36:55.561Z,68.00
2023-03-22T00:40:13.602Z,66.10
2023-03-22T00:44:09.915Z,108.20
2023-03-22T00:47:28.232Z,77.20
2023-03-22T00:51:24.237Z,70.50
2023-03-22T00:54:43.402Z,91.40
2023-03-22T00:58:23.711Z,72.00
2023-03-22T01:01:59.065Z,86.70
2023-03-22T01:05:36.031Z,101.90
2023-03-22T01:09:33.277Z,80.90
2023-03-22T01:12:51.645Z,81.90
2023-03-22T01:16:29.239Z,82.20
2023-03-22T01:20:26.846Z,72.70
2023-03-22T01:24:03.902Z,99.30
2023-03-22T01:27:24.987Z,82.20
2023-03-22T01:31:03.117Z,76.50
2023-03-22T01:34:56.868Z,75.70
2023-03-22T01:38:15.366Z,78.00
2023-03-22T01:42:15.179Z,69.30
2023-03-22T01:45:51.617Z,66.20
2023-03-22T01:49:29.845Z,62.80
2023-03-22T01:52:46.276Z,60.80
2023-03-22T01:56:26.833Z,67.50
2023-03-22T02:00:42.628Z,70.00
2023-03-22T02:04:12.334Z,69.80
2023-03-22T02:07:41.848Z,62.90
2023-03-22T02:11:21.544Z,65.00
2023-03-22T02:15:22.336Z,65.90
2023-03-22T02:18:40.596Z,67.80
2023-03-22T02:22:40.275Z,47.70
2023-03-22T02:26:09.142Z,45.90
2023-03-22T02:30:11.591Z,47.40
2023-03-22T02:34:14.035Z,49.20
2023-03-22T02:37:41.009Z,51.30
2023-03-22T02:41:18.597Z,58.30
2023-03-22T02:44:41.416Z,70.20
2023-03-22T02:48:13.703Z,64.00
2023-03-22T02:51:59.159Z,58.10
2023-03-22T02:55:44.498Z,69.20
2023-03-22T02:59:06.769Z,99.70
2023-03-22T03:02:45.600Z,86.10
2023-03-22T03:06:21.877Z,88.30
2023-03-22T03:09:56.463Z,82.10
2023-03-22T03:13:36.657Z,66.30
2023-03-22T03:17:56.177Z,65.70
2023-03-22T03:21:20.771Z,72.40
2023-03-22T03:24:45.720Z,60.90
2023-03-22T03:28:48.932Z,55.30
2023-03-22T03:32:17.734Z,69.10
2023-03-22T03:35:45.114Z,56.10
2023-03-22T03:39:33.446Z,68.90
2023-03-22T03:42:53.710Z,77.20
2023-03-22T03:46:29.201Z,86.10
2023-03-22T03:50:28.030Z,65.90
2023-03-22T03:53:44.146Z,50.60
2023-03-22T03:57:25.169Z,56.20
2023-03-22T04:01:19.129Z,63.00
2023-03-22T04:04:43.240Z,63.20
2023-03-22T04:08:19.841Z,91.80
2023-03-22T04:11:58.112Z,57.20
2023-03-22T04:15:35.321Z,80.90
2023-03-22T04:19:13.566Z,104.30
2023-03-22T04:22:52.684Z,71.30
2023-03-22T04:26:49.063Z,58.20
2023-03-22T04:30:11.146Z,52.00
2023-03-22T04:33:46.955Z,52.70
2023-03-22T04:37:24.489Z,61.20
2023-03-22T04:40:59.161Z,55.20
2023-03-22T04:44:55.926Z,59.20
2023-03-22T04:48:16.113Z,60.50
2023-03-22T04:52:11.936Z,54.10
2023-03-22T04:55:49.822Z,69.00
2023-03-22T04:59:07.402Z,59.80
2023-03-22T05:03:05.301Z,63.20
2023-03-22T05:06:26.220Z,59.90
2023-03-22T05:10:19.649Z,57.00
2023-03-22T05:13:38.466Z,57.90
2023-03-22T05:17:37.234Z,52.30
2023-03-22T05:20:59.282Z,58.70
2023-03-22T05:24:50.836Z,58.70
2023-03-22T05:28:09.385Z,59.30
2023-03-22T05:31:49.932Z,62.60
2023-03-22T05:35:43.281Z,52.90
2023-03-22T05:39:02.299Z,51.80
2023-03-22T05:42:58.677Z,56.80
2023-03-22T05:46:17.362Z,48.40
2023-03-22T05:50:18.226Z,53.30
2023-03-22T05:53:56.210Z,50.20
2023-03-22T05:57:10.421Z,47.20
2023-03-22T06:01:10.909Z,36.70
2023-03-22T06:04:25.783Z,49.40
2023-03-22T06:08:04.048Z,48.20
2023-03-22T06:12:00.023Z,45.20
2023-03-22T06:15:37.791Z,40.20
2023-03-22T06:18:56.671Z,50.60
2023-03-22T06:22:53.658Z,46.70
2023-03-22T06:26:12.922Z,57.90
2023-03-22T06:29:51.095Z,52.30
2023-03-22T06:33:29.907Z,50.40
2023-03-22T06:37:25.436Z,48.50
2023-03-22T06:40:42.683Z,53.10
2023-03-22T06:44:24.505Z,54.20
2023-03-22T06:47:58.349Z,60.90
2023-03-22T06:51:36.348Z,52.20
2023-03-22T06:55:13.359Z,37.50
2023-03-22T06:59:10.032Z,41.30
2023-03-22T07:02:28.703Z,46.40
2023-03-22T07:06:25.464Z,57.40
2023-03-22T07:09:44.442Z,41.60
2023-03-22T07:13:22.112Z,49.20
2023-03-22T07:16:59.717Z,46.40
2023-03-22T07:20:38.696Z,47.70
2023-03-22T07:24:33.821Z,51.80
2023-03-22T07:27:55.507Z,50.90
2023-03-22T07:31:31.478Z,40.60
2023-03-22T07:35:12.326Z,42.80
2023-03-22T07:38:45.778Z,53.30
2023-03-22T07:42:23.440Z,44.20
2023-03-22T07:46:23.419Z,44.00
2023-03-22T07:49:51.471Z,33.40
2023-03-22T07:53:24.156Z,44.30
2023-03-22T07:57:21.005Z,37.70
2023-03-22T08:00:39.717Z,41.70
2023-03-22T08:04:37.346Z,36.10
2023-03-22T08:08:15.026Z,31.40
2023-03-22T08:11:53.035Z,34.70
2023-03-22T08:15:11.393Z,38.00
2023-03-22T08:18:49.005Z,41.60
2023-03-22T08:22:30.117Z,31.30
2023-03-22T08:26:12.037Z,40.00
2023-03-22T08:30:10.624Z,40.60
2023-03-22T08:33:28.176Z,28.20
2023-03-22T08:37:23.382Z,34.90
2023-03-22T08:40:45.568Z,29.80
2023-03-22T08:44:21.451Z,36.90
2023-03-22T08:48:17.146Z,31.00
2023-03-22T08:51:58.439Z,28.00
2023-03-22T08:55:36.014Z,26.50
2023-03-22T08:58:57.243Z,31.80
2023-03-22T09:02:32.825Z,26.20
2023-03-22T09:06:30.553Z,26.90
2023-03-22T09:09:47.427Z,27.00
2023-03-22T09:13:44.009Z,24.50
2023-03-22T09:17:03.094Z,30.30
2023-03-22T09:20:40.794Z,37.90
2023-03-22T09:24:39.903Z,29.30
2023-03-22T09:28:15.977Z,28.00
2023-03-22T09:31:37.467Z,28.30
2023-03-22T09:35:31.516Z,29.30
2023-03-22T09:38:50.138Z,34.60
2023-03-22T09:42:47.548Z,37.50
2023-03-22T09:46:16.669Z,27.90
2023-03-22T09:49:53.698Z,36.50
2023-03-22T09:53:38.940Z,24.90
2023-03-22T09:57:07.296Z,28.00
2023-03-22T10:00:40.318Z,31.50
2023-03-22T10:04:36.366Z,30.10
2023-03-22T10:08:09.310Z,33.70
2023-03-22T10:12:05.490Z,31.00
2023-03-22T10:15:41.985Z,27.70
2023-03-22T10:18:49.829Z,33.00
2023-03-22T10:22:35.640Z,28.80
2023-03-22T10:26:03.729Z,23.30
2023-03-22T10:29:40.643Z,30.20
2023-03-22T10:33:28.153Z,33.90
2023-03-22T10:37:24.478Z,32.70
2023-03-22T10:40:35.635Z,33.10
2023-03-22T10:44:35.757Z,30.80
2023-03-22T10:47:58.265Z,26.30
2023-03-22T10:51:32.780Z,30.90
2023-03-22T10:55:24.987Z,31.80
2023-03-22T10:58:40.832Z,31.30
2023-03-22T11:02:31.202Z,32.60
2023-03-22T11:06:25.884Z,22.90
2023-03-22T11:09:33.332Z,21.60
2023-03-22T11:13:34.524Z,30.60
2023-03-22T11:17:06.644Z,28.10
2023-03-22T11:20:28.193Z,23.90
2023-03-22T11:24:07.145Z,23.60
2023-03-22T11:27:56.373Z,28.00
2023-03-22T11:31:21.287Z,28.10
2023-03-22T11:35:27.599Z,27.30
2023-03-22T11:38:38.245Z,23.40
2023-03-22T11:42:19.403Z,23.30
2023-03-22T11:45:56.576Z,21.10
2023-03-22T11:49:40.339Z,23.00
2023-03-22T11:53:12.287Z,28.70
2023-03-22T11:56:48.083Z,23.90
2023-03-22T12:00:42.246Z,46.40
2023-03-22T12:04:24.043Z,21.20
2023-03-22T12:07:37.946Z,26.40
2023-03-22T12:11:38.921Z,22.00
2023-03-22T12:15:20.388Z,23.60
2023-03-22T12:19:02.294Z,25.20
2023-03-22T12:22:17.468Z,21.70
2023-03-22T12:25:53.508Z,24.60
2023-03-22T12:29:23.397Z,25.80
2023-03-22T12:33:27.082Z,23.60
2023-03-22T12:36:45.867Z,28.00
2023-03-22T12:40:24.257Z,28.10
2023-03-22T12:44:26.557Z,25.50
2023-03-22T12:47:45.960Z,23.80
2023-03-22T12:51:12.816Z,23.00
2023-03-22T12:54:52.764Z,20.70
2023-03-22T12:58:26.217Z,20.50
2023-03-22T13:02:34.776Z,19.20
2023-03-22T13:05:39.327Z,19.10
2023-03-22T13:09:38.844Z,17.30
2023-03-22T13:13:22.373Z,15.30
2023-03-22T13:16:50.009Z,15.50
2023-03-22T13:20:33.365Z,15.50
2023-03-22T13:24:21.366Z,13.00
2023-03-22T13:27:45.304Z,11.80
2023-03-22T13:31:04.671Z,10.40
2023-03-22T13:34:48.261Z,9.40
2023-03-22T13:38:26.223Z,9.60
2023-03-22T13:42:21.228Z,17.40
2023-03-22T13:45:34.551Z,9.90
2023-03-22T13:49:29.444Z,10.70
2023-03-22T13:53:19.076Z,9.40
2023-03-22T13:57:00.694Z,10.90
2023-03-22T14:00:34.324Z,8.60
2023-03-22T14:03:47.816Z,7.00
2023-03-22T14:07:26.544Z,8.90
2023-03-22T14:11:10.623Z,7.70
2023-03-22T14:14:42.961Z,7.60
2023-03-22T14:18:32.386Z,5.30
